Time;durP1;ratioP1;P1;durP2;ratioP2;P2;SDS_P1;SDS_P2;PMS_P1;PMS_P2;Temp;Humidity;BMP_temperature;BMP_pressure;BME280_temperature;BME280_humidity;BME280_pressure;Samples;Min_cycle;Max_cycle;Signal;HPM_P1;HPM_P2
2021/01/31 00:00:45;;;;;;;5.43;3.65;;;10.00;60.40;;;;;;5101786;28;20021;-63
2021/01/31 00:03:13;;;;;;;6.32;3.75;;;9.90;60.30;;;;;;5103092;28;20315;-63
2021/01/31 00:05:39;;;;;;;5.87;3.73;;;9.90;60.40;;;;;;5105663;28;20050;-63
2021/01/31 00:08:10;;;;;;;5.13;3.55;;;9.90;60.30;;;;;;5105546;28;20232;-64
2021/01/31 00:10:36;;;;;;;6.85;3.45;;;9.90;60.30;;;;;;5105474;28;20027;-63
2021/01/31 00:13:02;;;;;;;4.72;3.60;;;9.90;60.40;;;;;;5105508;28;20024;-64
2021/01/31 00:15:32;;;;;;;6.10;3.60;;;9.90;60.40;;;;;;5105415;28;20031;-63
2021/01/31 00:17:58;;;;;;;5.93;4.00;;;9.90;60.60;;;;;;5105272;28;20335;-63
2021/01/31 00:20:27;;;;;;;5.13;3.78;;;9.90;60.50;;;;;;5105272;28;20047;-63
2021/01/31 00:22:53;;;;;;;;;;;9.90;60.30;;;;;;5105664;28;20015;-63
2021/01/31 00:25:20;;;;;;;7.05;4.00;;;9.90;60.20;;;;;;5105204;28;19908;-64
2021/01/31 00:27:46;;;;;;;5.85;4.18;;;10.00;60.40;;;;;;5105113;28;20058;-63
2021/01/31 00:30:16;;;;;;;5.82;3.90;;;9.90;60.30;;;;;;5103922;28;20201;-63
2021/01/31 00:32:42;;;;;;;6.95;3.80;;;9.90;60.40;;;;;;5105102;28;20012;-63
2021/01/31 00:35:09;;;;;;;6.30;4.00;;;9.90;60.40;;;;;;5105061;28;20023;-64
2021/01/31 00:37:35;;;;;;;6.57;4.28;;;9.90;60.30;;;;;;5104842;28;20035;-63
2021/01/31 00:40:01;;;;;;;5.07;3.45;;;9.90;60.40;;;;;;5104906;28;20050;-63
2021/01/31 00:42:26;;;;;;;6.45;4.25;;;9.90;60.40;;;;;;5105068;28;20016;-63
2021/01/31 00:44:53;;;;;;;4.75;3.85;;;9.90;60.30;;;;;;5104543;28;20052;-63
2021/01/31 00:47:20;;;;;;;6.22;4.07;;;9.90;60.30;;;;;;5104819;28;20039;-63
2021/01/31 00:49:48;;;;;;;5.63;3.97;;;9.90;60.30;;;;;;5104710;28;20043;-63
2021/01/31 00:52:14;;;;;;;7.15;4.22;;;9.90;60.30;;;;;;5104647;28;20047;-63
2021/01/31 00:54:40;;;;;;;5.85;4.20;;;9.90;60.20;;;;;;5104659;28;20020;-63
2021/01/31 00:57:06;;;;;;;4.90;3.85;;;9.90;60.30;;;;;;5104512;28;20051;-64
2021/01/31 00:59:33;;;;;;;6.53;4.72;;;9.90;60.20;;;;;;5104526;28;20071;-64
2021/01/31 01:02:06;;;;;;;7.57;4.47;;;9.90;60.20;;;;;;5104518;28;20069;-63
2021/01/31 01:04:32;;;;;;;7.85;4.68;;;9.90;60.10;;;;;;5104519;28;20016;-63
2021/01/31 01:06:57;;;;;;;7.60;4.78;;;9.90;60.20;;;;;;5104451;28;20023;-64
2021/01/31 01:09:23;;;;;;;5.65;4.15;;;9.90;60.20;;;;;;5104314;28;20030;-64
2021/01/31 01:11:49;;;;;;;5.95;3.97;;;9.90;60.20;;;;;;5104295;28;20031;-63
2021/01/31 01:14:14;;;;;;;6.82;4.57;;;9.90;60.40;;;;;;5103459;28;20023;-64
2021/01/31 01:16:40;;;;;;;6.28;3.92;;;9.90;60.30;;;;;;5103979;28;20028;-63
2021/01/31 01:19:06;;;;;;;7.68;4.28;;;9.90;60.20;;;;;;5104087;28;20016;-63
2021/01/31 01:21:32;;;;;;;6.70;4.20;;;9.90;61.10;;;;;;5104129;28;20027;-63
2021/01/31 01:23:59;;;;;;;5.88;3.90;;;9.90;60.20;;;;;;5103997;28;20242;-63
2021/01/31 01:26:31;;;;;;;8.15;4.82;;;9.90;60.10;;;;;;5103962;28;20249;-63
2021/01/31 01:28:57;;;;;;;6.18;4.18;;;10.00;59.90;;;;;;5103980;28;20418;-63
2021/01/31 01:31:24;;;;;;;6.38;4.20;;;9.90;60.10;;;;;;5103939;28;20023;-64
2021/01/31 01:33:51;;;;;;;8.50;5.38;;;9.90;60.20;;;;;;5103876;28;20027;-63
2021/01/31 01:36:17;;;;;;;7.30;5.03;;;9.90;60.20;;;;;;5103696;28;20016;-63
2021/01/31 01:38:44;;;;;;;7.05;4.60;;;9.90;60.10;;;;;;5103716;28;20240;-64
2021/01/31 01:41:10;;;;;;;6.15;4.43;;;9.80;60.20;;;;;;5103743;28;20125;-63
2021/01/31 01:43:36;;;;;;;6.75;4.68;;;9.90;60.30;;;;;;5103600;28;20320;-64
2021/01/31 01:46:19;;;;;;;8.85;5.32;;;9.80;60.30;;;;;;5103463;28;20058;-65
2021/01/31 01:49:00;;;;;;;6.95;4.38;;;9.90;60.30;;;;;;5103558;28;20016;-64
2021/01/31 01:51:57;;;;;;;6.57;4.60;;;9.90;60.30;;;;;;5103515;28;20012;-63
2021/01/31 01:54:29;;;;;;;7.43;4.53;;;9.90;60.20;;;;;;5102379;28;20051;-64
2021/01/31 01:57:01;;;;;;;8.35;4.90;;;9.90;60.30;;;;;;5103344;28;20083;-64
2021/01/31 01:59:30;;;;;;;7.85;5.03;;;9.90;60.10;;;;;;5103421;28;20035;-63
2021/01/31 02:02:28;;;;;;;7.45;5.00;;;9.90;60.10;;;;;;5103351;28;20122;-63
2021/01/31 02:04:55;;;;;;;7.25;4.78;;;9.90;60.30;;;;;;5103268;28;20035;-64
2021/01/31 02:07:21;;;;;;;9.15;5.70;;;9.90;60.20;;;;;;5103224;28;20375;-63
2021/01/31 02:09:50;;;;;;;6.18;4.20;;;9.90;60.20;;;;;;5103076;28;20027;-64
2021/01/31 02:12:21;;;;;;;7.68;4.78;;;9.80;60.10;;;;;;5103101;28;20311;-63
2021/01/31 02:14:49;;;;;;;6.13;4.47;;;9.90;60.30;;;;;;5103118;28;20327;-64
2021/01/31 02:17:34;;;;;;;8.43;5.40;;;9.80;60.20;;;;;;5102979;28;20080;-63
2021/01/31 02:20:20;;;;;;;8.15;5.18;;;9.80;60.40;;;;;;5102992;28;20069;-63
2021/01/31 02:23:13;;;;;;;8.65;5.70;;;9.80;60.40;;;;;;5102909;28;20020;-63
2021/01/31 02:25:59;;;;;;;8.77;5.07;;;9.90;60.40;;;;;;5102826;28;20313;-63
2021/01/31 02:29:08;;;;;;;8.18;5.47;;;9.90;59.90;;;;;;5102824;28;20335;-63
2021/01/31 02:32:18;;;;;;;8.93;5.65;;;9.90;59.80;;;;;;5068461;28;20032;-63
2021/01/31 02:35:07;;;;;;;9.20;5.18;;;9.90;59.90;;;;;;5102714;28;20082;-63
2021/01/31 02:37:51;;;;;;;8.70;4.80;;;9.90;60.00;;;;;;5102650;28;20020;-63
2021/01/31 02:40:27;;;;;;;8.50;5.88;;;9.90;60.20;;;;;;5102598;28;20053;-63
2021/01/31 02:43:17;;;;;;;8.52;5.28;;;9.90;60.10;;;;;;5101414;28;20012;-63
2021/01/31 02:45:47;;;;;;;8.90;5.03;;;9.90;60.20;;;;;;5102426;28;20051;-62
2021/01/31 02:48:39;;;;;;;8.40;5.20;;;9.80;60.30;;;;;;5102495;28;20020;-63
2021/01/31 02:51:29;;;;;;;7.57;5.20;;;9.80;60.20;;;;;;5095667;28;20036;-63
2021/01/31 02:54:20;;;;;;;11.35;5.75;;;9.80;60.30;;;;;;5102439;28;20214;-63
2021/01/31 02:56:53;;;;;;;6.93;4.93;;;9.80;60.30;;;;;;5102294;28;20034;-64
2021/01/31 02:59:29;;;;;;;7.07;4.57;;;9.80;60.20;;;;;;5102418;28;20012;-64
2021/01/31 03:02:03;;;;;;;9.02;5.15;;;9.80;60.40;;;;;;5102340;28;20016;-64
2021/01/31 03:04:37;;;;;;;8.10;5.30;;;9.80;60.20;;;;;;5102337;28;20016;-62
2021/01/31 03:07:39;;;;;;;8.13;5.50;;;9.90;60.20;;;;;;5102295;28;20044;-63
2021/01/31 03:10:12;;;;;;;8.75;5.60;;;9.90;60.20;;;;;;5050270;28;20044;-63
2021/01/31 03:12:48;;;;;;;8.00;5.18;;;9.90;60.10;;;;;;5102256;28;20308;-63
2021/01/31 03:15:24;;;;;;;7.90;4.85;;;9.80;60.30;;;;;;5102183;28;20057;-64
2021/01/31 03:17:55;;;;;;;8.63;5.28;;;9.90;60.40;;;;;;5102132;28;20070;-63
2021/01/31 03:20:25;;;;;;;7.85;5.53;;;9.80;60.10;;;;;;5102188;28;20308;-63
2021/01/31 03:23:16;;;;;;;7.35;5.07;;;9.80;60.20;;;;;;5102175;28;20078;-63
2021/01/31 03:25:58;;;;;;;9.68;5.78;;;9.80;60.30;;;;;;5102147;28;20027;-63
2021/01/31 03:28:24;;;;;;;9.40;5.68;;;9.90;60.20;;;;;;5102048;28;20072;-63
2021/01/31 03:30:50;;;;;;;8.68;5.25;;;9.90;60.00;;;;;;5102063;28;20039;-62
2021/01/31 03:33:26;;;;;;;8.63;5.90;;;9.90;60.00;;;;;;5102010;28;20036;-63
2021/01/31 03:35:53;;;;;;;9.98;5.60;;;9.90;60.00;;;;;;5102029;28;20027;-63
2021/01/31 03:38:40;;;;;;;8.13;4.97;;;9.90;60.00;;;;;;5103570;28;20028;-63
2021/01/31 03:41:12;;;;;;;6.55;5.13;;;9.90;60.20;;;;;;5105978;28;20019;-63
2021/01/31 03:43:38;;;;;;;10.00;5.55;;;9.90;60.20;;;;;;5105939;28;20016;-64
2021/01/31 03:46:28;;;;;;;8.48;5.57;;;9.90;60.20;;;;;;5105754;28;20285;-64
2021/01/31 03:49:00;;;;;;;7.05;4.78;;;9.90;60.20;;;;;;5105891;28;20028;-63
2021/01/31 03:51:27;;;;;;;7.68;4.82;;;9.80;60.20;;;;;;5105819;28;20372;-63
2021/01/31 03:53:54;;;;;;;8.95;5.82;;;9.80;60.30;;;;;;5105782;28;20201;-63
2021/01/31 03:56:25;;;;;;;7.70;5.05;;;9.90;60.30;;;;;;5105688;28;20020;-63
2021/01/31 03:58:54;;;;;;;7.03;5.40;;;9.90;60.20;;;;;;5105749;28;20020;-63
2021/01/31 04:01:22;;;;;;;7.53;5.93;;;9.90;60.30;;;;;;5105691;28;20219;-63
2021/01/31 04:04:05;;;;;;;8.93;5.65;;;9.80;60.10;;;;;;5105599;28;20189;-63
2021/01/31 04:06:36;;;;;;;10.85;5.78;;;9.80;60.60;;;;;;5105547;28;20319;-63
2021/01/31 04:09:04;;;;;;;8.73;5.20;;;9.90;60.10;;;;;;5105566;28;20032;-63
2021/01/31 04:11:42;;;;;;;8.43;5.80;;;9.90;60.20;;;;;;5105497;28;20404;-64
2021/01/31 04:14:20;;;;;;;9.27;5.30;;;9.80;60.10;;;;;;5105454;28;20031;-63
2021/01/31 04:16:48;;;;;;;8.27;5.13;;;9.80;60.80;;;;;;5105280;28;20323;-63
2021/01/31 04:19:15;;;;;;;8.50;5.70;;;9.80;60.20;;;;;;5105293;28;20024;-63
2021/01/31 04:21:40;;;;;;;6.82;5.18;;;9.80;60.10;;;;;;5105294;28;20197;-64
2021/01/31 04:24:07;;;;;;;9.75;5.55;;;9.70;60.20;;;;;;5105159;28;20031;-64
2021/01/31 04:26:33;;;;;;;9.73;5.70;;;9.70;60.20;;;;;;5105147;28;20083;-64
2021/01/31 04:28:59;;;;;;;8.43;5.05;;;9.80;60.10;;;;;;5105154;28;20072;-64
2021/01/31 04:31:27;;;;;;;8.48;5.72;;;9.90;60.00;;;;;;5105045;28;20373;-64
2021/01/31 04:33:53;;;;;;;8.50;4.68;;;9.90;60.00;;;;;;5105001;28;20253;-63
2021/01/31 04:36:20;;;;;;;7.90;4.90;;;9.90;59.80;;;;;;5104909;28;20024;-63
2021/01/31 04:38:45;;;;;;;8.98;5.38;;;9.90;59.70;;;;;;5104870;28;20020;-63
2021/01/31 04:41:11;;;;;;;7.82;5.28;;;9.90;60.20;;;;;;5104897;28;20016;-64
2021/01/31 04:43:37;;;;;;;7.20;5.57;;;9.80;59.70;;;;;;5104795;28;20020;-63
2021/01/31 04:46:04;;;;;;;7.57;5.00;;;9.80;59.80;;;;;;5104618;28;20055;-63
2021/01/31 04:48:35;;;;;;;9.85;5.95;;;9.80;59.70;;;;;;5104595;28;20346;-63
2021/01/31 04:51:22;;;;;;;8.18;5.90;;;9.80;59.80;;;;;;5103623;28;20091;-64
2021/01/31 04:54:09;;;;;;;7.53;5.63;;;9.80;59.80;;;;;;5104662;28;20016;-63
2021/01/31 04:56:47;;;;;;;7.80;5.45;;;9.70;59.80;;;;;;5104477;28;20054;-63
2021/01/31 04:59:32;;;;;;;9.07;5.60;;;9.70;59.90;;;;;;5104551;28;20051;-63
2021/01/31 05:02:19;;;;;;;7.40;5.15;;;9.80;59.80;;;;;;5104492;28;20016;-64
2021/01/31 05:04:57;;;;;;;8.68;5.22;;;9.80;59.50;;;;;;5104375;28;20020;-64
2021/01/31 05:07:55;;;;;;;7.88;5.97;;;9.90;59.50;;;;;;5104391;28;20026;-63
2021/01/31 05:10:21;;;;;;;7.68;5.00;;;9.90;59.40;;;;;;5104363;28;20036;-64
2021/01/31 05:13:17;;;;;;;7.78;4.72;;;9.80;59.20;;;;;;5104220;28;20031;-64
2021/01/31 05:16:06;;;;;;;9.20;6.07;;;9.80;59.10;;;;;;5104206;28;20116;-64
2021/01/31 05:18:36;;;;;;;8.73;5.70;;;9.80;59.30;;;;;;5104132;28;20185;-63
2021/01/31 05:21:07;;;;;;;7.93;5.30;;;9.80;59.50;;;;;;5104114;28;20012;-64
2021/01/31 05:23:38;;;;;;;7.40;5.25;;;9.80;59.60;;;;;;5104078;28;20016;-63
2021/01/31 05:26:05;;;;;;;8.30;5.18;;;9.80;59.90;;;;;;5104003;28;20037;-63
2021/01/31 05:28:33;;;;;;;9.25;5.82;;;9.80;59.60;;;;;;5103961;28;20399;-63
2021/01/31 05:30:58;;;;;;;9.70;5.50;;;9.80;59.50;;;;;;5103918;28;20066;-63
2021/01/31 05:33:24;;;;;;;6.72;4.95;;;9.80;59.50;;;;;;5136829;27;20327;-63
2021/01/31 05:36:13;;;;;;;9.23;5.60;;;9.80;59.60;;;;;;5103815;28;20106;-64
2021/01/31 05:38:42;;;;;;;10.30;6.22;;;9.80;59.40;;;;;;5103826;28;20024;-63
2021/01/31 05:41:35;;;;;;;9.80;5.90;;;9.80;59.50;;;;;;5103661;28;20061;-63
2021/01/31 05:44:12;;;;;;;9.70;6.57;;;9.70;59.50;;;;;;5102469;28;20030;-63
2021/01/31 05:46:46;;;;;;;8.77;5.43;;;9.70;59.80;;;;;;5103313;28;20056;-63
2021/01/31 05:49:39;;;;;;;8.13;5.28;;;9.70;59.70;;;;;;5103564;28;20036;-63
2021/01/31 05:52:20;;;;;;;8.50;5.43;;;9.80;59.50;;;;;;5103487;28;20032;-63
2021/01/31 05:54:47;;;;;;;11.23;6.13;;;9.70;59.50;;;;;;5103398;28;20379;-63
2021/01/31 05:57:35;;;;;;;7.65;5.30;;;9.80;59.50;;;;;;5103316;28;20047;-63
2021/01/31 06:00:17;;;;;;;8.40;5.65;;;9.80;59.70;;;;;;5103383;28;20026;-63
2021/01/31 06:03:01;;;;;;;12.05;6.57;;;9.80;59.60;;;;;;5103271;28;20020;-63
2021/01/31 06:05:28;;;;;;;9.82;5.45;;;9.80;59.70;;;;;;5101940;28;20016;-63
2021/01/31 06:08:09;;;;;;;8.68;5.57;;;9.80;59.70;;;;;;5103182;28;20323;-63
2021/01/31 06:10:39;;;;;;;7.97;5.35;;;9.80;59.40;;;;;;5103113;28;20019;-63
2021/01/31 06:13:11;;;;;;;10.30;5.45;;;9.80;59.60;;;;;;5103107;28;20331;-63
2021/01/31 06:15:54;;;;;;;8.57;5.75;;;9.80;59.50;;;;;;5103059;28;20024;-63
2021/01/31 06:18:25;;;;;;;8.93;5.72;;;9.70;59.50;;;;;;5103003;28;20028;-64
2021/01/31 06:20:50;;;;;;;10.05;6.28;;;9.70;59.50;;;;;;5103027;28;20342;-63
2021/01/31 06:23:39;;;;;;;8.95;5.72;;;9.70;59.60;;;;;;5102879;28;20032;-63
2021/01/31 06:26:05;;;;;;;7.25;5.03;;;9.70;59.70;;;;;;5102892;28;20015;-63
2021/01/31 06:28:44;;;;;;;9.27;5.75;;;9.80;59.60;;;;;;5102833;28;20039;-63
2021/01/31 06:31:35;;;;;;;7.18;4.68;;;9.80;59.40;;;;;;5102803;28;20016;-63
2021/01/31 06:34:01;;;;;;;7.50;4.82;;;9.80;59.10;;;;;;5102824;28;20019;-64
2021/01/31 06:36:50;;;;;;;7.97;5.05;;;9.80;59.50;;;;;;5102566;28;20062;-64
2021/01/31 06:39:37;;;;;;;8.85;5.47;;;9.80;59.10;;;;;;5102667;28;20028;-62
2021/01/31 06:42:43;;;;;;;8.25;5.53;;;9.80;59.00;;;;;;5102184;28;20079;-62
2021/01/31 06:45:14;;;;;;;8.23;4.93;;;9.80;58.90;;;;;;5102771;28;20019;-65
2021/01/31 06:48:12;;;;;;;8.65;5.70;;;9.70;59.30;;;;;;5102515;28;20023;-62
2021/01/31 06:51:04;;;;;;;7.80;4.90;;;9.70;59.30;;;;;;5102562;28;20020;-64
2021/01/31 06:54:08;;;;;;;7.38;4.78;;;9.70;59.50;;;;;;5102137;28;20066;-63
2021/01/31 06:56:52;;;;;;;9.52;5.13;;;9.70;59.40;;;;;;5102238;28;20016;-64
2021/01/31 06:59:30;;;;;;;11.45;5.65;;;9.70;59.50;;;;;;5102401;28;20019;-63
2021/01/31 07:02:10;;;;;;;7.75;5.53;;;9.70;59.40;;;;;;5102307;28;20130;-63
2021/01/31 07:04:39;;;;;;;9.80;5.70;;;9.60;59.50;;;;;;5102236;28;20024;-62
2021/01/31 07:07:25;;;;;;;8.27;5.22;;;9.60;59.50;;;;;;5102249;28;20054;-63
2021/01/31 07:10:15;;;;;;;8.68;5.35;;;9.70;59.50;;;;;;5102246;28;20228;-63
2021/01/31 07:12:52;;;;;;;8.90;5.28;;;9.70;59.40;;;;;;5101407;28;20224;-63
2021/01/31 07:15:20;;;;;;;7.45;4.95;;;9.70;59.30;;;;;;5102212;28;20020;-63
2021/01/31 07:17:55;;;;;;;8.20;5.30;;;9.80;59.30;;;;;;5102060;28;20024;-63
2021/01/31 07:20:31;;;;;;;6.47;5.18;;;9.70;59.10;;;;;;5102229;28;20355;-63
2021/01/31 07:23:16;;;;;;;10.13;5.50;;;9.80;59.40;;;;;;5102124;28;20023;-63
2021/01/31 07:26:14;;;;;;;8.18;5.40;;;9.80;59.20;;;;;;5102070;28;20051;-63
2021/01/31 07:28:41;;;;;;;8.30;5.43;;;9.70;59.20;;;;;;5080897;28;20043;-62
2021/01/31 07:31:23;;;;;;;8.00;5.38;;;9.70;59.30;;;;;;5102009;28;20023;-63
2021/01/31 07:34:02;;;;;;;6.07;5.00;;;9.70;59.30;;;;;;5100894;28;20024;-63
2021/01/31 07:36:38;;;;;;;8.25;5.50;;;9.80;59.20;;;;;;5101956;28;20023;-63
2021/01/31 07:39:12;;;;;;;8.30;5.20;;;9.70;59.40;;;;;;5101973;28;20047;-63
2021/01/31 07:41:56;;;;;;;7.78;5.50;;;9.70;59.40;;;;;;5102007;28;20079;-64
2021/01/31 07:44:32;;;;;;;7.70;5.00;;;9.70;59.10;;;;;;5101953;28;20230;-64
2021/01/31 07:46:59;;;;;;;6.93;5.22;;;9.80;59.00;;;;;;5101758;28;20330;-63
2021/01/31 07:49:25;;;;;;;9.13;5.85;;;9.90;58.90;;;;;;5101855;28;20107;-63
2021/01/31 07:52:02;;;;;;;7.00;5.07;;;9.80;58.80;;;;;;5100964;28;20028;-64
2021/01/31 07:54:39;;;;;;;6.97;5.03;;;9.80;58.70;;;;;;5101840;28;20015;-64
2021/01/31 07:57:24;;;;;;;8.98;5.55;;;9.90;58.70;;;;;;5101719;28;20069;-63
2021/01/31 07:59:51;;;;;;;9.70;6.00;;;9.80;58.80;;;;;;5101784;28;20022;-63
2021/01/31 08:02:36;;;;;;;8.18;5.13;;;9.80;58.90;;;;;;5102012;28;20016;-64
2021/01/31 08:05:02;;;;;;;7.70;5.00;;;9.70;59.00;;;;;;5101808;28;20081;-64
2021/01/31 08:08:00;;;;;;;7.15;5.20;;;9.70;59.30;;;;;;5101727;28;20016;-64
2021/01/31 08:10:39;;;;;;;7.35;4.97;;;9.70;59.40;;;;;;5100468;28;20074;-63
2021/01/31 08:13:10;;;;;;;8.00;5.57;;;9.70;59.50;;;;;;5101588;28;20027;-63
2021/01/31 08:15:41;;;;;;;9.65;5.95;;;9.70;59.30;;;;;;5101612;28;20046;-63
2021/01/31 08:18:08;;;;;;;8.93;5.88;;;9.70;59.30;;;;;;5101516;28;20031;-63
2021/01/31 08:20:38;;;;;;;9.13;5.07;;;9.80;59.40;;;;;;5101548;28;20024;-64
2021/01/31 08:23:24;;;;;;;10.32;6.05;;;9.80;59.00;;;;;;5101533;28;20026;-63
2021/01/31 08:25:55;;;;;;;9.23;4.80;;;9.90;58.80;;;;;;5105026;28;20024;-64
2021/01/31 08:28:29;;;;;;;9.10;5.88;;;9.90;58.80;;;;;;5105153;28;20062;-63
2021/01/31 08:31:01;;;;;;;7.47;5.13;;;9.90;59.10;;;;;;5105123;28;20054;-62
2021/01/31 08:33:28;;;;;;;8.32;4.85;;;9.90;58.70;;;;;;5105003;28;20020;-63
2021/01/31 08:36:21;;;;;;;9.40;5.05;;;9.80;58.60;;;;;;5103744;28;20093;-63
2021/01/31 08:38:55;;;;;;;7.13;4.75;;;9.90;58.90;;;;;;5104957;28;20083;-63
2021/01/31 08:41:36;;;;;;;8.05;5.07;;;9.80;58.90;;;;;;5104920;28;20081;-63
2021/01/31 08:44:11;;;;;;;7.20;4.85;;;9.90;58.80;;;;;;5104904;28;20204;-62
2021/01/31 08:46:57;;;;;;;7.93;5.68;;;9.80;58.90;;;;;;5104589;28;20052;-63
2021/01/31 08:49:23;;;;;;;7.65;5.10;;;9.90;59.10;;;;;;5104321;28;20024;-63
2021/01/31 08:52:12;;;;;;;7.40;5.05;;;9.90;58.90;;;;;;5104718;28;20024;-64
2021/01/31 08:54:38;;;;;;;8.55;5.10;;;9.90;58.70;;;;;;5104682;28;20027;-63
2021/01/31 08:57:11;;;;;;;7.68;4.93;;;9.90;58.80;;;;;;5104480;28;20040;-64
2021/01/31 08:59:45;;;;;;;8.48;5.13;;;10.00;58.70;;;;;;5104492;28;20073;-63
2021/01/31 09:02:14;;;;;;;6.78;4.72;;;10.00;58.50;;;;;;5104548;28;20024;-63
2021/01/31 09:05:16;;;;;;;7.38;4.85;;;10.00;58.70;;;;;;5104462;28;20024;-63
2021/01/31 09:07:45;;;;;;;7.18;4.95;;;10.00;58.50;;;;;;5104444;28;20024;-63
2021/01/31 09:10:33;;;;;;;8.52;5.45;;;10.00;58.60;;;;;;5104369;28;20048;-62
2021/01/31 09:13:30;;;;;;;9.10;5.63;;;10.00;58.50;;;;;;5104374;28;20039;-63
2021/01/31 09:16:25;;;;;;;9.40;5.22;;;10.00;58.90;;;;;;5103197;28;20040;-63
2021/01/31 09:19:20;;;;;;;7.38;4.88;;;10.00;58.60;;;;;;5104195;28;20286;-63
2021/01/31 09:21:55;;;;;;;6.57;4.65;;;10.10;58.40;;;;;;5104129;28;20023;-64
2021/01/31 09:24:22;;;;;;;7.25;4.47;;;10.10;58.60;;;;;;5104180;28;20057;-63
2021/01/31 09:26:55;;;;;;;8.13;4.97;;;10.10;58.50;;;;;;5104062;28;20083;-64
2021/01/31 09:29:31;;;;;;;6.80;4.68;;;10.10;58.30;;;;;;5104058;28;20323;-63
2021/01/31 09:32:20;;;;;;;7.93;5.20;;;10.10;58.50;;;;;;5103899;28;20020;-63
2021/01/31 09:34:47;;;;;;;;;;;10.10;58.60;;;;;;5104316;28;20149;-63
2021/01/31 09:37:23;;;;;;;7.47;5.32;;;10.10;58.60;;;;;;5103054;28;19910;-63
2021/01/31 09:39:51;;;;;;;6.85;4.63;;;10.10;58.50;;;;;;5103786;28;20087;-63
2021/01/31 09:42:17;;;;;;;8.77;4.90;;;10.10;58.20;;;;;;5103665;28;20035;-63
2021/01/31 09:44:57;;;;;;;7.35;5.88;;;10.20;58.10;;;;;;5103651;28;20376;-63
2021/01/31 09:47:23;;;;;;;6.68;4.43;;;10.20;58.00;;;;;;5103519;28;20047;-63
2021/01/31 09:49:53;;;;;;;7.70;4.97;;;10.20;58.00;;;;;;5103586;28;20047;-64
2021/01/31 09:52:19;;;;;;;7.53;4.85;;;10.20;58.10;;;;;;5103533;28;20083;-63
2021/01/31 09:54:44;;;;;;;9.95;5.00;;;10.20;58.10;;;;;;5103440;28;20049;-63
2021/01/31 09:57:18;;;;;;;7.32;4.60;;;10.20;58.00;;;;;;5103400;28;20081;-63
2021/01/31 09:59:44;;;;;;;6.43;4.43;;;10.20;58.10;;;;;;5103343;28;20039;-63
2021/01/31 10:02:22;;;;;;;6.60;4.50;;;10.30;58.10;;;;;;5103364;28;20034;-63
2021/01/31 10:05:01;;;;;;;6.70;4.93;;;10.30;58.10;;;;;;5103274;28;20024;-63
2021/01/31 10:07:49;;;;;;;6.72;4.80;;;10.30;58.10;;;;;;5103261;28;20016;-63
2021/01/31 10:10:25;;;;;;;6.60;4.60;;;10.20;58.30;;;;;;5103228;28;20028;-63
2021/01/31 10:13:11;;;;;;;8.48;4.70;;;10.20;58.20;;;;;;5103145;28;20078;-63
2021/01/31 10:15:39;;;;;;;5.32;4.53;;;10.20;58.10;;;;;;5103095;28;20027;-63
2021/01/31 10:18:11;;;;;;;7.73;5.17;;;10.20;58.30;;;;;;5102955;28;20020;-63
2021/01/31 10:20:39;;;;;;;7.20;4.85;;;10.30;58.30;;;;;;5102994;28;20049;-63
2021/01/31 10:23:07;;;;;;;6.97;4.40;;;10.30;57.90;;;;;;5102979;28;20065;-63
2021/01/31 10:25:36;;;;;;;7.13;4.97;;;10.30;58.20;;;;;;5102897;28;20070;-63
2021/01/31 10:28:03;;;;;;;7.17;4.43;;;10.30;58.20;;;;;;5102918;28;20104;-64
2021/01/31 10:30:49;;;;;;;7.13;4.30;;;10.30;58.20;;;;;;5102680;28;20253;-64
2021/01/31 10:33:39;;;;;;;7.65;4.65;;;10.30;58.10;;;;;;5102807;28;20066;-64
2021/01/31 10:36:26;;;;;;;5.63;3.92;;;10.30;58.00;;;;;;5102693;28;20024;-64
2021/01/31 10:38:54;;;;;;;7.75;5.10;;;10.30;58.20;;;;;;5102739;28;20319;-63
2021/01/31 10:41:20;;;;;;;7.77;4.53;;;10.30;58.30;;;;;;5102676;28;20028;-64
2021/01/31 10:44:07;;;;;;;5.57;4.20;;;10.30;58.20;;;;;;5102589;28;20377;-63
2021/01/31 10:46:34;;;;;;;7.05;4.32;;;10.30;58.20;;;;;;5102437;28;20119;-64
2021/01/31 10:49:00;;;;;;;5.65;4.03;;;10.30;58.00;;;;;;5102560;28;20028;-64
2021/01/31 10:51:32;;;;;;;7.40;4.45;;;10.30;57.90;;;;;;5102441;28;20055;-64
2021/01/31 10:53:58;;;;;;;6.43;4.13;;;10.30;58.40;;;;;;5102456;28;20020;-63
2021/01/31 10:56:24;;;;;;;6.93;4.32;;;10.30;58.90;;;;;;5102335;28;20053;-64
2021/01/31 10:58:50;;;;;;;7.03;4.63;;;10.30;58.40;;;;;;5102430;28;20242;-64
2021/01/31 11:01:15;;;;;;;7.07;4.78;;;10.30;58.50;;;;;;5102316;28;20408;-64
2021/01/31 11:03:41;;;;;;;9.90;4.75;;;10.30;58.20;;;;;;5101183;28;20238;-65
2021/01/31 11:06:07;;;;;;;18.88;4.78;;;10.20;58.10;;;;;;5102270;28;20015;-64
2021/01/31 11:08:33;;;;;;;5.55;4.20;;;10.30;58.40;;;;;;5135279;27;20024;-65
2021/01/31 11:10:59;;;;;;;7.35;4.82;;;10.30;58.40;;;;;;5102245;28;20019;-64
2021/01/31 11:13:26;;;;;;;5.50;4.05;;;10.20;58.30;;;;;;5102111;28;20035;-64
2021/01/31 11:15:52;;;;;;;5.90;4.65;;;10.30;58.30;;;;;;5102242;28;20043;-64
2021/01/31 11:18:18;;;;;;;7.65;4.72;;;10.30;58.10;;;;;;5102113;28;20056;-63
2021/01/31 11:20:45;;;;;;;11.32;4.30;;;10.30;58.10;;;;;;5102157;28;20262;-63
2021/01/31 11:23:10;;;;;;;6.70;4.68;;;10.30;58.10;;;;;;5102153;28;20339;-63
2021/01/31 11:25:36;;;;;;;9.52;5.13;;;10.30;58.20;;;;;;5102066;28;20133;-63
2021/01/31 11:28:02;;;;;;;12.88;5.50;;;10.40;58.00;;;;;;5102066;28;20024;-64
2021/01/31 11:30:29;;;;;;;6.63;4.60;;;10.40;58.50;;;;;;5102097;28;20027;-63
2021/01/31 11:32:58;;;;;;;8.65;5.00;;;10.40;58.20;;;;;;5102012;28;20028;-63
2021/01/31 11:35:25;;;;;;;7.85;5.40;;;10.40;58.30;;;;;;5101983;28;20020;-63
2021/01/31 11:37:51;;;;;;;7.47;5.22;;;10.40;58.10;;;;;;5101936;28;20020;-63
2021/01/31 11:40:18;;;;;;;8.80;4.78;;;10.40;58.20;;;;;;5101979;28;20035;-63
2021/01/31 11:42:44;;;;;;;7.00;4.80;;;10.40;58.40;;;;;;5101872;28;20012;-63
2021/01/31 11:45:10;;;;;;;8.35;5.15;;;10.40;58.20;;;;;;5101768;28;20031;-64
2021/01/31 11:47:37;;;;;;;8.50;4.68;;;10.40;58.20;;;;;;5101887;28;20031;-64
2021/01/31 11:50:04;;;;;;;7.90;4.90;;;10.40;58.00;;;;;;5101884;28;20050;-63
2021/01/31 11:52:30;;;;;;;8.32;4.63;;;10.50;57.90;;;;;;5101911;28;20012;-63
2021/01/31 11:54:56;;;;;;;7.75;4.82;;;10.40;57.80;;;;;;5101779;28;20272;-64
2021/01/31 11:57:21;;;;;;;7.63;5.30;;;10.40;57.90;;;;;;5101732;28;20023;-63
2021/01/31 11:59:47;;;;;;;7.88;5.22;;;10.40;58.00;;;;;;5104063;28;20030;-63
2021/01/31 12:02:12;;;;;;;10.73;5.10;;;10.40;58.60;;;;;;5105689;28;20012;-63
2021/01/31 12:04:38;;;;;;;6.10;4.80;;;10.50;58.20;;;;;;5105628;28;20242;-64
2021/01/31 12:07:08;;;;;;;7.55;4.70;;;10.50;58.40;;;;;;5105607;28;20028;-63
2021/01/31 12:09:34;;;;;;;6.50;4.32;;;10.50;58.20;;;;;;5105521;28;20019;-63
2021/01/31 12:11:59;;;;;;;6.60;4.75;;;10.50;58.40;;;;;;5105508;28;20028;-63
2021/01/31 12:14:25;;;;;;;5.82;4.28;;;10.50;58.20;;;;;;5105390;28;20046;-63
2021/01/31 12:16:52;;;;;;;7.40;4.40;;;10.50;58.00;;;;;;5105315;28;20054;-64
2021/01/31 12:19:19;;;;;;;6.78;4.30;;;10.50;58.00;;;;;;5105337;28;20020;-63
2021/01/31 12:21:44;;;;;;;9.93;4.70;;;10.50;58.30;;;;;;5105264;28;20201;-63
2021/01/31 12:24:10;;;;;;;6.72;4.13;;;10.40;58.10;;;;;;5105310;28;20019;-63
2021/01/31 12:26:36;;;;;;;6.88;4.60;;;10.40;58.20;;;;;;5105175;28;20185;-63
2021/01/31 12:29:03;;;;;;;7.07;4.40;;;10.40;58.50;;;;;;5105193;28;20019;-63
2021/01/31 12:31:29;;;;;;;8.05;4.35;;;10.40;58.40;;;;;;5105118;28;20031;-63
2021/01/31 12:33:54;;;;;;;7.93;5.15;;;10.40;58.30;;;;;;5105060;28;20079;-63
2021/01/31 12:36:20;;;;;;;8.38;5.25;;;10.40;58.30;;;;;;5105020;28;20016;-63
2021/01/31 12:38:46;;;;;;;10.02;5.43;;;10.40;58.20;;;;;;5104880;28;20043;-64
2021/01/31 12:41:12;;;;;;;7.97;5.10;;;10.40;58.30;;;;;;5104992;28;20008;-63
2021/01/31 12:43:37;;;;;;;7.05;4.75;;;10.40;58.40;;;;;;5104837;28;20020;-63
2021/01/31 12:46:04;;;;;;;6.75;4.65;;;10.40;58.20;;;;;;5104686;28;20099;-63
2021/01/31 12:48:29;;;;;;;12.93;4.47;;;10.50;58.40;;;;;;5104770;28;20028;-63
2021/01/31 12:50:55;;;;;;;7.95;5.30;;;10.50;58.20;;;;;;5104717;28;20289;-63
2021/01/31 12:53:21;;;;;;;6.35;4.10;;;10.50;58.20;;;;;;5104746;28;20034;-63
2021/01/31 12:55:47;;;;;;;6.75;4.78;;;10.50;58.30;;;;;;5104615;28;20075;-62
2021/01/31 12:58:12;;;;;;;11.90;5.93;;;10.50;58.30;;;;;;5104547;28;20088;-63
2021/01/31 13:00:38;;;;;;;7.38;4.85;;;10.50;58.20;;;;;;5104511;28;20023;-62
2021/01/31 13:03:04;;;;;;;7.90;5.05;;;10.50;58.10;;;;;;5104457;28;20039;-63
2021/01/31 13:05:30;;;;;;;6.90;5.10;;;10.50;58.50;;;;;;5104513;28;20011;-63
2021/01/31 13:08:00;;;;;;;7.78;4.75;;;10.50;58.40;;;;;;5104453;28;20031;-63
2021/01/31 13:10:27;;;;;;;5.35;4.35;;;10.50;58.50;;;;;;5103198;28;20050;-63
2021/01/31 13:12:53;;;;;;;9.13;5.47;;;10.50;58.30;;;;;;5104358;28;20039;-63
2021/01/31 13:15:19;;;;;;;7.68;4.80;;;10.50;58.40;;;;;;5104307;28;20028;-63
2021/01/31 13:17:45;;;;;;;6.30;4.15;;;10.50;58.50;;;;;;5102960;28;20024;-63
2021/01/31 13:20:11;;;;;;;8.18;5.40;;;10.50;58.30;;;;;;5103012;28;20024;-63
2021/01/31 13:22:37;;;;;;;8.63;4.93;;;10.50;58.50;;;;;;5104145;28;20016;-63
2021/01/31 13:25:05;;;;;;;7.03;4.63;;;10.50;58.50;;;;;;5104112;28;20034;-63